createdAt,value
2023-03-23T15:58:33.684Z,20.60
2023-03-23T16:01:06.401Z,20.53
2023-03-23T16:03:42.400Z,20.51
2023-03-23T16:06:13.144Z,20.50
2023-03-23T16:08:54.012Z,20.39
2023-03-23T16:11:26.060Z,20.30
2023-03-23T16:13:54.141Z,20.22
2023-03-23T16:16:27.079Z,20.04
2023-03-23T16:18:55.583Z,19.88
2023-03-23T16:21:23.709Z,19.73
2023-03-23T16:23:51.597Z,19.52
2023-03-23T16:26:19.746Z,19.34
2023-03-23T16:28:49.592Z,19.20
2023-03-23T16:31:18.569Z,19.06
2023-03-23T16:33:46.540Z,18.90
2023-03-23T16:36:15.323Z,18.78
2023-03-23T16:38:49.204Z,18.61
2023-03-23T16:41:18.117Z,18.44
2023-03-23T16:43:46.491Z,18.30
2023-03-23T16:46:15.933Z,18.20
2023-03-23T16:48:44.006Z,18.11
2023-03-23T16:51:12.049Z,18.01
2023-03-23T16:53:39.998Z,17.89
2023-03-23T16:56:08.023Z,17.79
2023-03-23T16:58:36.125Z,17.68
2023-03-23T17:01:05.709Z,17.57
2023-03-23T17:03:35.658Z,17.47
2023-03-23T17:06:04.554Z,17.37
2023-03-23T17:08:32.982Z,17.30
2023-03-23T17:11:01.086Z,17.23
2023-03-23T17:13:29.245Z,17.19
2023-03-23T17:15:57.970Z,17.19
2023-03-23T17:18:28.690Z,17.16
2023-03-23T17:20:58.061Z,17.13
2023-03-23T17:23:26.148Z,17.11
2023-03-23T17:25:54.370Z,17.11
2023-03-23T17:28:22.754Z,17.13
2023-03-23T17:30:52.858Z,17.17
2023-03-23T17:33:21.035Z,17.16
2023-03-23T17:35:51.620Z,17.22
2023-03-23T17:38:21.309Z,17.22
2023-03-23T17:40:49.179Z,17.21
2023-03-23T17:43:17.089Z,17.18
2023-03-23T17:45:47.022Z,17.15
2023-03-23T17:48:15.264Z,17.12
2023-03-23T17:50:43.215Z,17.09
2023-03-23T17:53:11.332Z,17.07
2023-03-23T17:55:43.047Z,17.02
2023-03-23T17:58:12.158Z,17.00
2023-03-23T18:00:40.322Z,16.94
2023-03-23T18:03:08.362Z,16.89
2023-03-23T18:05:39.075Z,16.81
2023-03-23T18:08:07.822Z,16.78
2023-03-23T18:10:38.853Z,16.75
2023-03-23T18:13:09.572Z,16.70
2023-03-23T18:15:38.195Z,16.66
2023-03-23T18:18:06.889Z,16.62
2023-03-23T18:20:34.995Z,16.56
2023-03-23T18:23:03.646Z,16.53
2023-03-23T18:25:31.732Z,16.45
2023-03-23T18:28:04.850Z,16.42
2023-03-23T18:30:36.226Z,16.39
2023-03-23T18:33:04.340Z,16.40
2023-03-23T18:35:32.403Z,16.38
2023-03-23T18:38:00.659Z,16.36
2023-03-23T18:40:28.765Z,16.28
2023-03-23T18:43:00.576Z,16.26
2023-03-23T18:45:28.910Z,16.24
2023-03-23T18:47:58.268Z,16.23
2023-03-23T18:50:26.361Z,16.33
2023-03-23T18:52:54.593Z,16.36
2023-03-23T18:55:23.877Z,16.38
2023-03-23T18:57:51.980Z,16.32
2023-03-23T19:00:21.643Z,16.22
2023-03-23T19:02:51.958Z,16.14
2023-03-23T19:05:22.282Z,16.08
2023-03-23T19:07:53.057Z,16.07
2023-03-23T19:10:21.893Z,16.08
2023-03-23T19:12:51.529Z,16.08
2023-03-23T19:15:19.663Z,16.13
2023-03-23T19:17:48.053Z,16.13
2023-03-23T19:20:23.621Z,16.11
2023-03-23T19:23:05.370Z,16.10
2023-03-23T19:25:33.357Z,16.14
2023-03-23T19:30:33.311Z,16.13
2023-03-23T19:33:01.801Z,16.13
2023-03-23T19:35:30.158Z,16.13
2023-03-23T19:37:58.040Z,16.10
2023-03-23T19:40:39.093Z,16.06
2023-03-23T19:43:09.889Z,15.97
2023-03-23T19:45:38.188Z,15.85
2023-03-23T19:48:06.388Z,15.68
2023-03-23T19:50:36.719Z,15.74
2023-03-23T19:53:04.933Z,15.73
2023-03-23T19:55:34.274Z,15.72
2023-03-23T19:58:02.400Z,15.70
2023-03-23T20:00:30.836Z,15.71
2023-03-23T20:02:58.986Z,15.75
2023-03-23T20:05:27.342Z,15.76
2023-03-23T20:07:55.682Z,15.78
2023-03-23T20:10:23.982Z,15.77
2023-03-23T20:12:53.358Z,15.78
2023-03-23T20:15:21.389Z,15.68
2023-03-23T20:20:17.442Z,15.40
2023-03-23T20:22:45.622Z,15.39
2023-03-23T20:25:13.989Z,15.36
2023-03-23T20:27:42.227Z,15.23
2023-03-23T20:30:12.300Z,15.25
2023-03-23T20:32:40.810Z,15.27
2023-03-23T20:35:13.087Z,15.21
2023-03-23T20:37:41.537Z,15.15
2023-03-23T20:40:12.137Z,15.06
2023-03-23T20:42:43.605Z,15.09
2023-03-23T20:45:14.171Z,15.15
2023-03-23T20:47:42.245Z,15.16
2023-03-23T20:50:12.387Z,15.06
2023-03-23T20:52:41.647Z,15.14
2023-03-23T20:55:10.659Z,15.17
2023-03-23T20:57:40.274Z,15.29
2023-03-23T21:00:10.128Z,15.22
2023-03-23T21:02:39.494Z,15.12
2023-03-23T21:05:07.688Z,15.09
2023-03-23T21:07:36.118Z,15.07
2023-03-23T21:10:04.903Z,15.14
2023-03-23T21:12:32.911Z,15.23
2023-03-23T21:15:01.050Z,15.25
2023-03-23T21:17:29.197Z,15.25
2023-03-23T21:19:58.558Z,15.28
2023-03-23T21:22:26.514Z,15.34
2023-03-23T21:24:54.505Z,15.38
2023-03-23T21:27:22.464Z,15.38
2023-03-23T21:29:50.340Z,15.17
2023-03-23T21:32:18.320Z,15.34
2023-03-23T21:34:47.467Z,15.33
2023-03-23T21:37:17.115Z,15.33
2023-03-23T21:39:45.557Z,15.34
2023-03-23T21:42:13.886Z,15.34
2023-03-23T21:44:43.457Z,15.15
2023-03-23T21:47:12.706Z,14.95
2023-03-23T21:49:41.336Z,14.87
2023-03-23T21:52:09.387Z,14.98
2023-03-23T21:54:38.622Z,15.05
2023-03-23T21:57:06.927Z,15.13
2023-03-23T21:59:34.981Z,15.11
2023-03-23T22:02:03.092Z,15.15
2023-03-23T22:04:31.310Z,15.16
2023-03-23T22:06:59.640Z,15.20
2023-03-23T22:09:28.087Z,15.17
2023-03-23T22:11:57.914Z,15.16
2023-03-23T22:14:28.419Z,15.15
2023-03-23T22:16:57.156Z,15.20
2023-03-23T22:19:25.465Z,15.18
2023-03-23T22:21:53.738Z,15.12
2023-03-23T22:24:21.839Z,15.04
2023-03-23T22:26:50.116Z,14.96
2023-03-23T22:29:19.546Z,14.92
2023-03-23T22:31:47.736Z,14.92
2023-03-23T22:34:16.645Z,14.93
2023-03-23T22:36:44.779Z,14.88
2023-03-23T22:39:12.879Z,14.86
2023-03-23T22:41:43.011Z,14.78
2023-03-23T22:44:14.011Z,14.64
2023-03-23T22:46:43.585Z,14.48
2023-03-23T22:49:11.802Z,14.46
2023-03-23T22:51:40.199Z,14.46
2023-03-23T22:54:08.835Z,14.41
2023-03-23T22:56:37.961Z,14.35
2023-03-23T22:59:07.552Z,14.25
2023-03-23T23:01:37.153Z,14.21
2023-03-23T23:04:07.123Z,14.33
2023-03-23T23:06:35.587Z,14.45
2023-03-23T23:09:04.329Z,14.53
2023-03-23T23:11:32.525Z,14.51
2023-03-23T23:14:00.868Z,14.54
2023-03-23T23:16:29.043Z,14.51
2023-03-23T23:18:57.301Z,14.52
2023-03-23T23:21:28.780Z,14.50
2023-03-23T23:23:56.960Z,14.43
2023-03-23T23:26:25.318Z,14.42
2023-03-23T23:28:54.023Z,14.33
2023-03-23T23:31:26.202Z,14.08
2023-03-23T23:33:56.537Z,13.87
2023-03-23T23:36:30.020Z,13.76
2023-03-23T23:38:59.078Z,13.73
2023-03-23T23:41:27.912Z,13.67
2023-03-23T23:43:56.038Z,13.64
2023-03-23T23:46:24.003Z,13.60
2023-03-23T23:48:52.305Z,13.58
2023-03-23T23:51:20.879Z,13.62
2023-03-23T23:53:53.348Z,13.66
2023-03-23T23:56:22.388Z,13.76
2023-03-23T23:58:50.580Z,13.89
